PWSweather.com
Personal Weather Stations
Station Observations
UWIDEPER1
Brown County, Depere, WI 54115

Brown CountyDepere, WI 54115

Lat: 44.44, Lon: -88.05

Elevation: 610

Station Type: Acurite 5in1

www.depereweather.com

High Low Average
Temperature 86.1°F30.1°C 57.7°F14.3°C 73.4°F23.0°C
Dew Point 65.7°F18.7°C 55.1°F12.8°C 60.8°F16.0°C
Winds 4.6 mph 7.4 kmh Calm Calm 2.0 mph SE3.2 kmh SE
Wind Gusts 6.9 mph11.1 kmh -- 2.0 mph3.2 kmh
Humidity 93% 49% 67%
Pressure 30.15 in1021.0 mb 30.06 in1017.9 mb -
Precipitation 0.00 in0.0 mm - -
Hour Temp Dew Point Humidity Winds Wind Gusts Pressure Precip Precip Rate Daily Precip Total
12:00 AM 62.4°F16.9°C 58.8°F14.9°C 88% Calm Calm -- 30.08 in1018.6 mb - 0.00 in0.0 mm 0.00 in0.0 mm
12:10 AM 62.4°F16.9°C 58.8°F14.9°C 88% Calm Calm -- 30.08 in1018.6 mb - 0.00 in0.0 mm 0.00 in0.0 mm
12:15 AM 62.4°F16.9°C 58.8°F14.9°C 88% Calm Calm -- 30.08 in1018.6 mb - 0.00 in0.0 mm 0.00 in0.0 mm
12:20 AM 62.2°F16.8°C 58.6°F14.8°C 88% Calm Calm -- 30.08 in1018.6 mb - 0.00 in0.0 mm 0.00 in0.0 mm
12:25 AM 62.1°F16.7°C 58.5°F14.7°C 88% Calm Calm -- 30.08 in1018.6 mb - 0.00 in0.0 mm 0.00 in0.0 mm
12:30 AM 61.9°F16.6°C 58.3°F14.6°C 88% Calm Calm -- 30.08 in1018.6 mb - 0.00 in0.0 mm 0.00 in0.0 mm
12:35 AM 61.9°F16.6°C 58.3°F14.6°C 88% Calm Calm -- 30.09 in1019.0 mb - 0.00 in0.0 mm 0.00 in0.0 mm
12:40 AM 61.9°F16.6°C 58.3°F14.6°C 88% Calm Calm -- 30.08 in1018.6 mb - 0.00 in0.0 mm 0.00 in0.0 mm
12:45 AM 61.7°F16.5°C 58.1°F14.5°C 88% Calm Calm -- 30.09 in1019.0 mb - 0.00 in0.0 mm 0.00 in0.0 mm
12:50 AM 61.5°F16.4°C 57.9°F14.4°C 88% Calm Calm -- 30.09 in1019.0 mb - 0.00 in0.0 mm 0.00 in0.0 mm
12:55 AM 61.3°F16.3°C 57.8°F14.3°C 88% Calm Calm -- 30.08 in1018.6 mb - 0.00 in0.0 mm 0.00 in0.0 mm
01:00 AM 61.3°F16.3°C 57.8°F14.3°C 88% Calm Calm -- 30.08 in1018.6 mb - 0.00 in0.0 mm 0.00 in0.0 mm
01:10 AM 60.6°F15.9°C 57.0°F13.9°C 88% Calm Calm -- 30.08 in1018.6 mb - 0.00 in0.0 mm 0.00 in0.0 mm
01:15 AM 60.6°F15.9°C 57.0°F13.9°C 88% Calm Calm -- 30.09 in1019.0 mb - 0.00 in0.0 mm 0.00 in0.0 mm
01:20 AM 60.4°F15.8°C 57.5°F14.2°C 90% Calm Calm -- 30.08 in1018.6 mb - 0.00 in0.0 mm 0.00 in0.0 mm
01:25 AM 60.3°F15.7°C 57.3°F14.1°C 90% Calm Calm -- 30.09 in1019.0 mb - 0.00 in0.0 mm 0.00 in0.0 mm
01:30 AM 60.3°F15.7°C 57.3°F14.1°C 90% Calm Calm -- 30.09 in1019.0 mb - 0.00 in0.0 mm 0.00 in0.0 mm
01:35 AM 60.3°F15.7°C 57.6°F14.2°C 91% Calm Calm -- 30.09 in1019.0 mb - 0.00 in0.0 mm 0.00 in0.0 mm
01:40 AM 60.3°F15.7°C 57.6°F14.2°C 91% Calm Calm -- 30.08 in1018.6 mb - 0.00 in0.0 mm 0.00 in0.0 mm
01:45 AM 60.3°F15.7°C 57.6°F14.2°C 91% Calm Calm -- 30.08 in1018.6 mb - 0.00 in0.0 mm 0.00 in0.0 mm
01:50 AM 60.3°F15.7°C 57.6°F14.2°C 91% Calm Calm -- 30.08 in1018.6 mb - 0.00 in0.0 mm 0.00 in0.0 mm
01:55 AM 60.3°F15.7°C 57.6°F14.2°C 91% Calm Calm -- 30.07 in1018.3 mb - 0.00 in0.0 mm 0.00 in0.0 mm
02:00 AM 60.1°F15.6°C 57.4°F14.1°C 91% Calm Calm -- 30.08 in1018.6 mb - 0.00 in0.0 mm 0.00 in0.0 mm
02:10 AM 59.9°F15.5°C 57.3°F14.1°C 91% Calm Calm -- 30.07 in1018.3 mb - 0.00 in0.0 mm 0.00 in0.0 mm
02:15 AM 59.9°F15.5°C 57.3°F14.1°C 91% Calm Calm -- 30.07 in1018.3 mb - 0.00 in0.0 mm 0.00 in0.0 mm
02:20 AM 59.7°F15.4°C 57.1°F13.9°C 91% Calm Calm -- 30.08 in1018.6 mb - 0.00 in0.0 mm 0.00 in0.0 mm
02:25 AM 59.7°F15.4°C 57.1°F13.9°C 91% Calm Calm -- 30.08 in1018.6 mb - 0.00 in0.0 mm 0.00 in0.0 mm
02:30 AM 59.7°F15.4°C 57.1°F13.9°C 91% Calm Calm -- 30.08 in1018.6 mb - 0.00 in0.0 mm 0.00 in0.0 mm
02:35 AM 59.7°F15.4°C 57.1°F13.9°C 91% Calm Calm -- 30.08 in1018.6 mb - 0.00 in0.0 mm 0.00 in0.0 mm
02:40 AM 59.7°F15.4°C 57.1°F13.9°C 91% Calm Calm -- 30.08 in1018.6 mb - 0.00 in0.0 mm 0.00 in0.0 mm
02:45 AM 59.4°F15.2°C 56.7°F13.7°C 91% Calm Calm -- 30.09 in1019.0 mb - 0.00 in0.0 mm 0.00 in0.0 mm
02:50 AM 59.4°F15.2°C 56.7°F13.7°C 91% Calm Calm -- 30.09 in1019.0 mb - 0.00 in0.0 mm 0.00 in0.0 mm
02:55 AM 59.4°F15.2°C 56.7°F13.7°C 91% Calm Calm -- 30.09 in1019.0 mb - 0.00 in0.0 mm 0.00 in0.0 mm
03:00 AM 59.4°F15.2°C 56.7°F13.7°C 91% Calm Calm -- 30.09 in1019.0 mb - 0.00 in0.0 mm 0.00 in0.0 mm
03:10 AM 59.1°F15.1°C 56.4°F13.6°C 91% Calm Calm -- 30.09 in1019.0 mb - 0.00 in0.0 mm 0.00 in0.0 mm
03:15 AM 59.0°F15.0°C 56.4°F13.6°C 91% Calm Calm -- 30.10 in1019.3 mb - 0.00 in0.0 mm 0.00 in0.0 mm
03:20 AM 59.0°F15.0°C 56.4°F13.6°C 91% Calm Calm -- 30.10 in1019.3 mb - 0.00 in0.0 mm 0.00 in0.0 mm
03:25 AM 58.8°F14.9°C 56.2°F13.4°C 91% Calm Calm -- 30.10 in1019.3 mb - 0.00 in0.0 mm 0.00 in0.0 mm
03:30 AM 58.8°F14.9°C 56.2°F13.4°C 91% Calm Calm -- 30.10 in1019.3 mb - 0.00 in0.0 mm 0.00 in0.0 mm
03:35 AM 58.5°F14.7°C 55.8°F13.2°C 91% Calm Calm -- 30.10 in1019.3 mb - 0.00 in0.0 mm 0.00 in0.0 mm
03:40 AM 58.5°F14.7°C 55.8°F13.2°C 91% Calm Calm -- 30.10 in1019.3 mb - 0.00 in0.0 mm 0.00 in0.0 mm
03:45 AM 58.5°F14.7°C 55.8°F13.2°C 91% Calm Calm -- 30.09 in1019.0 mb - 0.00 in0.0 mm 0.00 in0.0 mm
03:50 AM 58.5°F14.7°C 55.8°F13.2°C 91% Calm Calm -- 30.10 in1019.3 mb - 0.00 in0.0 mm 0.00 in0.0 mm
03:55 AM 58.5°F14.7°C 55.8°F13.2°C 91% Calm Calm -- 30.10 in1019.3 mb - 0.00 in0.0 mm 0.00 in0.0 mm
04:00 AM 58.5°F14.7°C 55.8°F13.2°C 91% Calm Calm -- 30.10 in1019.3 mb - 0.00 in0.0 mm 0.00 in0.0 mm
04:10 AM 58.5°F14.7°C 55.8°F13.2°C 91% Calm Calm -- 30.11 in1019.6 mb - 0.00 in0.0 mm 0.00 in0.0 mm
04:15 AM 58.3°F14.6°C 55.7°F13.2°C 91% Calm Calm -- 30.11 in1019.6 mb - 0.00 in0.0 mm 0.00 in0.0 mm
04:20 AM 57.9°F14.4°C 55.3°F12.9°C 91% Calm Calm -- 30.11 in1019.6 mb - 0.00 in0.0 mm 0.00 in0.0 mm
04:25 AM 57.7°F14.3°C 55.1°F12.8°C 91% Calm Calm -- 30.11 in1019.6 mb - 0.00 in0.0 mm 0.00 in0.0 mm
04:30 AM 57.7°F14.3°C 55.1°F12.8°C 91% Calm Calm -- 30.11 in1019.6 mb - 0.00 in0.0 mm 0.00 in0.0 mm
04:35 AM 57.7°F14.3°C 55.1°F12.8°C 91% Calm Calm -- 30.11 in1019.6 mb - 0.00 in0.0 mm 0.00 in0.0 mm
04:40 AM 57.7°F14.3°C 55.7°F13.2°C 93% Calm Calm -- 30.11 in1019.6 mb - 0.00 in0.0 mm 0.00 in0.0 mm
04:45 AM 57.7°F14.3°C 55.7°F13.2°C 93% Calm Calm -- 30.11 in1019.6 mb - 0.00 in0.0 mm 0.00 in0.0 mm
04:50 AM 57.9°F14.4°C 55.9°F13.3°C 93% Calm Calm -- 30.11 in1019.6 mb - 0.00 in0.0 mm 0.00 in0.0 mm
04:55 AM 58.3°F14.6°C 56.3°F13.5°C 93% Calm Calm -- 30.11 in1019.6 mb - 0.00 in0.0 mm 0.00 in0.0 mm
05:00 AM 58.5°F14.7°C 56.4°F13.6°C 93% Calm Calm -- 30.11 in1019.6 mb - 0.00 in0.0 mm 0.00 in0.0 mm
05:10 AM 59.2°F15.1°C 56.2°F13.4°C 90% Calm Calm -- 30.12 in1020.0 mb - 0.00 in0.0 mm 0.00 in0.0 mm
05:15 AM 59.4°F15.2°C 56.7°F13.7°C 91% Calm Calm -- 30.12 in1020.0 mb - 0.00 in0.0 mm 0.00 in0.0 mm
05:20 AM 59.6°F15.3°C 56.9°F13.8°C 91% Calm Calm -- 30.11 in1019.6 mb - 0.00 in0.0 mm 0.00 in0.0 mm
05:25 AM 60.2°F15.7°C 57.3°F14.1°C 90% Calm Calm -- 30.12 in1020.0 mb - 0.00 in0.0 mm 0.00 in0.0 mm
05:30 AM 60.3°F15.7°C 57.3°F14.1°C 90% Calm Calm -- 30.12 in1020.0 mb - 0.00 in0.0 mm 0.00 in0.0 mm
05:35 AM 60.4°F15.8°C 57.5°F14.2°C 90% Calm Calm -- 30.12 in1020.0 mb - 0.00 in0.0 mm 0.00 in0.0 mm
05:40 AM 60.4°F15.8°C 57.5°F14.2°C 90% Calm Calm -- 30.12 in1020.0 mb - 0.00 in0.0 mm 0.00 in0.0 mm
05:45 AM 60.6°F15.9°C 57.7°F14.3°C 90% Calm Calm -- 30.12 in1020.0 mb - 0.00 in0.0 mm 0.00 in0.0 mm
05:50 AM 61.3°F16.3°C 57.7°F14.3°C 88% Calm Calm 1.2 mph1.9 kmh 30.12 in1020.0 mb - 0.00 in0.0 mm 0.00 in0.0 mm
05:55 AM 61.7°F16.5°C 57.5°F14.2°C 86% Calm Calm 1.2 mph1.9 kmh 30.12 in1020.0 mb - 0.00 in0.0 mm 0.00 in0.0 mm
06:00 AM 62.3°F16.8°C 57.4°F14.1°C 84% Calm Calm 2.3 mph3.7 kmh 30.12 in1020.0 mb - 0.00 in0.0 mm 0.00 in0.0 mm
06:10 AM 65.0°F18.3°C 58.3°F14.6°C 79% 1.2 mph NE1.9 kmh NE 1.2 mph1.9 kmh 30.13 in1020.3 mb - 0.00 in0.0 mm 0.00 in0.0 mm
06:15 AM 66.7°F19.3°C 58.9°F14.9°C 76% 1.2 mph SSE1.9 kmh SSE 1.2 mph1.9 kmh 30.13 in1020.3 mb - 0.00 in0.0 mm 0.00 in0.0 mm
06:20 AM 69.5°F20.8°C 59.7°F15.4°C 71% Calm Calm -- 30.12 in1020.0 mb - 0.00 in0.0 mm 0.00 in0.0 mm
06:25 AM 69.2°F20.7°C 59.0°F15.0°C 70% Calm Calm 2.3 mph3.7 kmh 30.12 in1020.0 mb - 0.00 in0.0 mm 0.00 in0.0 mm
06:30 AM 70.3°F21.3°C 60.1°F15.6°C 70% Calm Calm -- 30.12 in1020.0 mb - 0.00 in0.0 mm 0.00 in0.0 mm
06:35 AM 70.0°F21.1°C 59.7°F15.4°C 70% 1.2 mph SSE1.9 kmh SSE 2.3 mph3.7 kmh 30.12 in1020.0 mb - 0.00 in0.0 mm 0.00 in0.0 mm
06:40 AM 70.4°F21.3°C 60.2°F15.7°C 70% Calm Calm -- 30.13 in1020.3 mb - 0.00 in0.0 mm 0.00 in0.0 mm
06:45 AM 71.1°F21.7°C 60.4°F15.8°C 69% Calm Calm 1.2 mph1.9 kmh 30.12 in1020.0 mb - 0.00 in0.0 mm 0.00 in0.0 mm
06:50 AM 71.9°F22.2°C 60.8°F16.0°C 68% 1.2 mph ENE1.9 kmh ENE 2.3 mph3.7 kmh 30.12 in1020.0 mb - 0.00 in0.0 mm 0.00 in0.0 mm
06:55 AM 72.5°F22.5°C 60.5°F15.8°C 66% 1.2 mph ENE1.9 kmh ENE 3.5 mph5.6 kmh 30.12 in1020.0 mb - 0.00 in0.0 mm 0.00 in0.0 mm
07:00 AM 72.5°F22.5°C 61.7°F16.5°C 69% 1.2 mph E1.9 kmh E 2.3 mph3.7 kmh 30.12 in1020.0 mb - 0.00 in0.0 mm 0.00 in0.0 mm
07:10 AM 73.9°F23.3°C 62.3°F16.8°C 67% Calm Calm 2.3 mph3.7 kmh 30.12 in1020.0 mb - 0.00 in0.0 mm 0.00 in0.0 mm
07:15 AM 74.7°F23.7°C 62.1°F16.7°C 65% 1.2 mph SE1.9 kmh SE 2.3 mph3.7 kmh 30.12 in1020.0 mb - 0.00 in0.0 mm 0.00 in0.0 mm
07:20 AM 75.9°F24.4°C 62.9°F17.2°C 64% 2.3 mph ESE3.7 kmh ESE 3.5 mph5.6 kmh 30.12 in1020.0 mb - 0.00 in0.0 mm 0.00 in0.0 mm
07:25 AM 76.3°F24.6°C 62.8°F17.1°C 63% 2.3 mph E3.7 kmh E 3.5 mph5.6 kmh 30.12 in1020.0 mb - 0.00 in0.0 mm 0.00 in0.0 mm
07:30 AM 77.2°F25.1°C 63.6°F17.6°C 63% 1.2 mph NE1.9 kmh NE 1.2 mph1.9 kmh 30.12 in1020.0 mb - 0.00 in0.0 mm 0.00 in0.0 mm
07:35 AM 77.0°F25.0°C 62.5°F16.9°C 61% 2.3 mph E3.7 kmh E 3.5 mph5.6 kmh 30.11 in1019.6 mb - 0.00 in0.0 mm 0.00 in0.0 mm
07:40 AM 76.9°F24.9°C 62.4°F16.9°C 61% 2.3 mph SE3.7 kmh SE 4.6 mph7.4 kmh 30.12 in1020.0 mb - 0.00 in0.0 mm 0.00 in0.0 mm
07:45 AM 77.5°F25.3°C 62.6°F17.0°C 60% 2.3 mph E3.7 kmh E 3.5 mph5.6 kmh 30.11 in1019.6 mb - 0.00 in0.0 mm 0.00 in0.0 mm
07:50 AM 77.5°F25.3°C 63.0°F17.2°C 61% 2.3 mph S3.7 kmh S 2.3 mph3.7 kmh 30.11 in1019.6 mb - 0.00 in0.0 mm 0.00 in0.0 mm
07:55 AM 78.0°F25.6°C 63.5°F17.5°C 61% 1.2 mph S1.9 kmh S 3.5 mph5.6 kmh 30.11 in1019.6 mb - 0.00 in0.0 mm 0.00 in0.0 mm
08:00 AM 78.8°F26.0°C 63.8°F17.7°C 60% 2.3 mph ENE3.7 kmh ENE 2.3 mph3.7 kmh 30.11 in1019.6 mb - 0.00 in0.0 mm 0.00 in0.0 mm
08:10 AM 79.3°F26.3°C 63.8°F17.7°C 59% 2.3 mph WSW3.7 kmh WSW 3.5 mph5.6 kmh 30.12 in1020.0 mb - 0.00 in0.0 mm 0.00 in0.0 mm
08:15 AM 79.3°F26.3°C 63.8°F17.7°C 59% 2.3 mph ESE3.7 kmh ESE 3.5 mph5.6 kmh 30.13 in1020.3 mb - 0.00 in0.0 mm 0.00 in0.0 mm
08:20 AM 79.5°F26.4°C 62.9°F17.2°C 57% 2.3 mph E3.7 kmh E 3.5 mph5.6 kmh 30.13 in1020.3 mb - 0.00 in0.0 mm 0.00 in0.0 mm
08:25 AM 80.1°F26.7°C 62.4°F16.9°C 55% 2.3 mph ESE3.7 kmh ESE 2.3 mph3.7 kmh 30.13 in1020.3 mb - 0.00 in0.0 mm 0.00 in0.0 mm
08:30 AM 80.8°F27.1°C 63.1°F17.3°C 55% 2.3 mph SE3.7 kmh SE 3.5 mph5.6 kmh 30.13 in1020.3 mb - 0.00 in0.0 mm 0.00 in0.0 mm
08:35 AM 80.4°F26.9°C 62.2°F16.8°C 54% 2.3 mph SSE3.7 kmh SSE 3.5 mph5.6 kmh 30.13 in1020.3 mb - 0.00 in0.0 mm 0.00 in0.0 mm
08:40 AM 81.0°F27.2°C 63.3°F17.4°C 55% 2.3 mph SE3.7 kmh SE 3.5 mph5.6 kmh 30.14 in1020.7 mb - 0.00 in0.0 mm 0.00 in0.0 mm
08:45 AM 81.3°F27.4°C 63.6°F17.6°C 55% 1.2 mph S1.9 kmh S 2.3 mph3.7 kmh 30.14 in1020.7 mb - 0.00 in0.0 mm 0.00 in0.0 mm
08:50 AM 81.2°F27.3°C 63.5°F17.5°C 55% 1.2 mph NE1.9 kmh NE 2.3 mph3.7 kmh 30.14 in1020.7 mb - 0.00 in0.0 mm 0.00 in0.0 mm
08:55 AM 82.2°F27.9°C 64.4°F18.0°C 55% 1.2 mph ESE1.9 kmh ESE 2.3 mph3.7 kmh 30.14 in1020.7 mb - 0.00 in0.0 mm 0.00 in0.0 mm
09:00 AM 81.9°F27.7°C 63.6°F17.6°C 54% 2.3 mph E3.7 kmh E 3.5 mph5.6 kmh 30.14 in1020.7 mb - 0.00 in0.0 mm 0.00 in0.0 mm
09:10 AM 82.1°F27.8°C 63.8°F17.7°C 54% 2.3 mph ESE3.7 kmh ESE 4.6 mph7.4 kmh 30.14 in1020.7 mb - 0.00 in0.0 mm 0.00 in0.0 mm
09:15 AM 82.8°F28.2°C 63.3°F17.4°C 52% 2.3 mph E3.7 kmh E 3.5 mph5.6 kmh 30.14 in1020.7 mb - 0.00 in0.0 mm 0.00 in0.0 mm
09:20 AM 82.1°F27.8°C 62.1°F16.7°C 51% 2.3 mph SE3.7 kmh SE 3.5 mph5.6 kmh 30.14 in1020.7 mb - 0.00 in0.0 mm 0.00 in0.0 mm
09:25 AM 82.8°F28.2°C 63.3°F17.4°C 52% 2.3 mph WSW3.7 kmh WSW 3.5 mph5.6 kmh 30.14 in1020.7 mb - 0.00 in0.0 mm 0.00 in0.0 mm
09:30 AM 82.8°F28.2°C 62.8°F17.1°C 51% 2.3 mph SE3.7 kmh SE 2.3 mph3.7 kmh 30.13 in1020.3 mb - 0.00 in0.0 mm 0.00 in0.0 mm
09:35 AM 83.5°F28.6°C 63.4°F17.4°C 51% 1.2 mph SSW1.9 kmh SSW 3.5 mph5.6 kmh 30.15 in1021.0 mb - 0.00 in0.0 mm 0.00 in0.0 mm
09:40 AM 83.5°F28.6°C 62.9°F17.2°C 50% 2.3 mph SE3.7 kmh SE 3.5 mph5.6 kmh 30.14 in1020.7 mb - 0.00 in0.0 mm 0.00 in0.0 mm
09:45 AM 83.5°F28.6°C 62.9°F17.2°C 50% 1.2 mph SE1.9 kmh SE 3.5 mph5.6 kmh 30.15 in1021.0 mb - 0.00 in0.0 mm 0.00 in0.0 mm
09:50 AM 83.6°F28.7°C 63.0°F17.2°C 50% 2.3 mph SSE3.7 kmh SSE 3.5 mph5.6 kmh 30.14 in1020.7 mb - 0.00 in0.0 mm 0.00 in0.0 mm
09:55 AM 83.5°F28.6°C 62.9°F17.2°C 50% 2.3 mph S3.7 kmh S 3.5 mph5.6 kmh 30.15 in1021.0 mb - 0.00 in0.0 mm 0.00 in0.0 mm
10:00 AM 84.3°F29.1°C 63.7°F17.6°C 50% 1.2 mph SW1.9 kmh SW 3.5 mph5.6 kmh 30.15 in1021.0 mb - 0.00 in0.0 mm 0.00 in0.0 mm
10:10 AM 84.3°F29.1°C 63.7°F17.6°C 50% 3.5 mph SSE5.6 kmh SSE 4.6 mph7.4 kmh 30.14 in1020.7 mb - 0.00 in0.0 mm 0.00 in0.0 mm
10:15 AM 83.9°F28.8°C 63.3°F17.4°C 50% 2.3 mph NNE3.7 kmh NNE 3.5 mph5.6 kmh 30.14 in1020.7 mb - 0.00 in0.0 mm 0.00 in0.0 mm
10:20 AM 84.2°F29.0°C 63.5°F17.5°C 50% 2.3 mph S3.7 kmh S 3.5 mph5.6 kmh 30.15 in1021.0 mb - 0.00 in0.0 mm 0.00 in0.0 mm
10:25 AM 84.2°F29.0°C 63.5°F17.5°C 50% 1.2 mph ESE1.9 kmh ESE 2.3 mph3.7 kmh 30.14 in1020.7 mb - 0.00 in0.0 mm 0.00 in0.0 mm
10:30 AM 83.8°F28.8°C 63.2°F17.3°C 50% 2.3 mph E3.7 kmh E 5.8 mph9.3 kmh 30.14 in1020.7 mb - 0.00 in0.0 mm 0.00 in0.0 mm
10:35 AM 84.7°F29.3°C 64.0°F17.8°C 50% 2.3 mph SE3.7 kmh SE 3.5 mph5.6 kmh 30.13 in1020.3 mb - 0.00 in0.0 mm 0.00 in0.0 mm
10:40 AM 84.8°F29.3°C 64.1°F17.8°C 50% 2.3 mph ESE3.7 kmh ESE 3.5 mph5.6 kmh 30.14 in1020.7 mb - 0.00 in0.0 mm 0.00 in0.0 mm
10:45 AM 84.7°F29.3°C 64.0°F17.8°C 50% 2.3 mph SSW3.7 kmh SSW 3.5 mph5.6 kmh 30.13 in1020.3 mb - 0.00 in0.0 mm 0.00 in0.0 mm
10:50 AM 83.8°F28.8°C 63.2°F17.3°C 50% 2.3 mph S3.7 kmh S 4.6 mph7.4 kmh 30.13 in1020.3 mb - 0.00 in0.0 mm 0.00 in0.0 mm
10:55 AM 84.3°F29.1°C 63.6°F17.6°C 50% 3.5 mph NE5.6 kmh NE 3.5 mph5.6 kmh 30.13 in1020.3 mb - 0.00 in0.0 mm 0.00 in0.0 mm
11:00 AM 85.5°F29.7°C 64.7°F18.2°C 50% 2.3 mph NE3.7 kmh NE 4.6 mph7.4 kmh 30.13 in1020.3 mb - 0.00 in0.0 mm 0.00 in0.0 mm
11:10 AM 84.1°F28.9°C 64.0°F17.8°C 51% 3.5 mph E5.6 kmh E 3.5 mph5.6 kmh 30.12 in1020.0 mb - 0.00 in0.0 mm 0.00 in0.0 mm
11:15 AM 84.6°F29.2°C 64.4°F18.0°C 51% 2.3 mph NE3.7 kmh NE 2.3 mph3.7 kmh 30.12 in1020.0 mb - 0.00 in0.0 mm 0.00 in0.0 mm
11:20 AM 83.6°F28.7°C 63.5°F17.5°C 51% 3.5 mph SE5.6 kmh SE 3.5 mph5.6 kmh 30.11 in1019.6 mb - 0.00 in0.0 mm 0.00 in0.0 mm
11:25 AM 83.0°F28.3°C 62.4°F16.9°C 50% 2.3 mph S3.7 kmh S 3.5 mph5.6 kmh 30.12 in1020.0 mb - 0.00 in0.0 mm 0.00 in0.0 mm
11:30 AM 83.3°F28.5°C 62.7°F17.1°C 50% 2.3 mph SSW3.7 kmh SSW 3.5 mph5.6 kmh 30.11 in1019.6 mb - 0.00 in0.0 mm 0.00 in0.0 mm
11:35 AM 83.0°F28.3°C 63.0°F17.2°C 51% 2.3 mph SSW3.7 kmh SSW 3.5 mph5.6 kmh 30.12 in1020.0 mb - 0.00 in0.0 mm 0.00 in0.0 mm
11:40 AM 82.8°F28.2°C 62.8°F17.1°C 51% 1.2 mph NNW1.9 kmh NNW 3.5 mph5.6 kmh 30.11 in1019.6 mb - 0.00 in0.0 mm 0.00 in0.0 mm
11:45 AM 82.2°F27.9°C 63.9°F17.7°C 54% 2.3 mph SSE3.7 kmh SSE 2.3 mph3.7 kmh 30.11 in1019.6 mb - 0.00 in0.0 mm 0.00 in0.0 mm
11:50 AM 82.6°F28.1°C 63.2°F17.3°C 52% 2.3 mph SSW3.7 kmh SSW 3.5 mph5.6 kmh 30.11 in1019.6 mb - 0.00 in0.0 mm 0.00 in0.0 mm
11:55 AM 83.6°F28.7°C 63.6°F17.6°C 51% 2.3 mph SSE3.7 kmh SSE 3.5 mph5.6 kmh 30.12 in1020.0 mb - 0.00 in0.0 mm 0.00 in0.0 mm
12:00 PM 84.6°F29.2°C 63.9°F17.7°C 50% 2.3 mph SSW3.7 kmh SSW 3.5 mph5.6 kmh 30.12 in1020.0 mb - 0.00 in0.0 mm 0.00 in0.0 mm
12:10 PM 86.1°F30.1°C 65.3°F18.5°C 50% 2.3 mph SE3.7 kmh SE 4.6 mph7.4 kmh 30.11 in1019.6 mb - 0.00 in0.0 mm 0.00 in0.0 mm
12:15 PM 85.3°F29.6°C 65.1°F18.4°C 51% 3.5 mph SE5.6 kmh SE 3.5 mph5.6 kmh 30.11 in1019.6 mb - 0.00 in0.0 mm 0.00 in0.0 mm
12:20 PM 85.4°F29.7°C 64.6°F18.1°C 50% 2.3 mph W3.7 kmh W 2.3 mph3.7 kmh 30.11 in1019.6 mb - 0.00 in0.0 mm 0.00 in0.0 mm
12:25 PM 84.6°F29.2°C 64.4°F18.0°C 51% 2.3 mph NE3.7 kmh NE 3.5 mph5.6 kmh 30.11 in1019.6 mb - 0.00 in0.0 mm 0.00 in0.0 mm
12:30 PM 84.6°F29.2°C 65.6°F18.7°C 53% 2.3 mph SE3.7 kmh SE 3.5 mph5.6 kmh 30.11 in1019.6 mb - 0.00 in0.0 mm 0.00 in0.0 mm
12:35 PM 85.8°F29.9°C 65.0°F18.3°C 50% 2.3 mph SE3.7 kmh SE 4.6 mph7.4 kmh 30.12 in1020.0 mb - 0.00 in0.0 mm 0.00 in0.0 mm
12:40 PM 84.9°F29.4°C 65.3°F18.5°C 52% 4.6 mph SE7.4 kmh SE 3.5 mph5.6 kmh 30.11 in1019.6 mb - 0.00 in0.0 mm 0.00 in0.0 mm
12:45 PM 84.7°F29.3°C 65.2°F18.4°C 52% 3.5 mph NE5.6 kmh NE 3.5 mph5.6 kmh 30.11 in1019.6 mb - 0.00 in0.0 mm 0.00 in0.0 mm
12:50 PM 83.8°F28.8°C 65.4°F18.6°C 54% 2.3 mph NE3.7 kmh NE 2.3 mph3.7 kmh 30.11 in1019.6 mb - 0.00 in0.0 mm 0.00 in0.0 mm
12:55 PM 83.9°F28.8°C 65.5°F18.6°C 54% 2.3 mph E3.7 kmh E 3.5 mph5.6 kmh 30.11 in1019.6 mb - 0.00 in0.0 mm 0.00 in0.0 mm
01:00 PM 82.9°F28.3°C 64.6°F18.1°C 54% 2.3 mph ENE3.7 kmh ENE 3.5 mph5.6 kmh 30.11 in1019.6 mb - 0.00 in0.0 mm 0.00 in0.0 mm
01:10 PM 82.1°F27.8°C 64.3°F17.9°C 55% 2.3 mph E3.7 kmh E 3.5 mph5.6 kmh 30.11 in1019.6 mb - 0.00 in0.0 mm 0.00 in0.0 mm
01:15 PM 82.4°F28.0°C 64.6°F18.1°C 55% 2.3 mph NNE3.7 kmh NNE 3.5 mph5.6 kmh 30.11 in1019.6 mb - 0.00 in0.0 mm 0.00 in0.0 mm
01:20 PM 82.4°F28.0°C 64.6°F18.1°C 55% 2.3 mph E3.7 kmh E 3.5 mph5.6 kmh 30.11 in1019.6 mb - 0.00 in0.0 mm 0.00 in0.0 mm
01:25 PM 82.8°F28.2°C 65.5°F18.6°C 56% 2.3 mph SE3.7 kmh SE 2.3 mph3.7 kmh 30.10 in1019.3 mb - 0.00 in0.0 mm 0.00 in0.0 mm
01:30 PM 82.9°F28.3°C 65.1°F18.4°C 55% 2.3 mph SSE3.7 kmh SSE 3.5 mph5.6 kmh 30.10 in1019.3 mb - 0.00 in0.0 mm 0.00 in0.0 mm
01:35 PM 82.8°F28.2°C 65.0°F18.3°C 55% 2.3 mph ESE3.7 kmh ESE 2.3 mph3.7 kmh 30.10 in1019.3 mb - 0.00 in0.0 mm 0.00 in0.0 mm
01:40 PM 83.8°F28.8°C 65.4°F18.6°C 54% 2.3 mph S3.7 kmh S 3.5 mph5.6 kmh 30.10 in1019.3 mb - 0.00 in0.0 mm 0.00 in0.0 mm
01:45 PM 83.4°F28.6°C 65.0°F18.3°C 54% 3.5 mph SSE5.6 kmh SSE 3.5 mph5.6 kmh 30.10 in1019.3 mb - 0.00 in0.0 mm 0.00 in0.0 mm
01:50 PM 84.7°F29.3°C 65.7°F18.7°C 53% 3.5 mph E5.6 kmh E 2.3 mph3.7 kmh 30.10 in1019.3 mb - 0.00 in0.0 mm 0.00 in0.0 mm
01:55 PM 85.3°F29.6°C 65.1°F18.4°C 51% 2.3 mph SSE3.7 kmh SSE 3.5 mph5.6 kmh 30.10 in1019.3 mb - 0.00 in0.0 mm 0.00 in0.0 mm
02:00 PM 84.7°F29.3°C 64.6°F18.1°C 51% 3.5 mph S5.6 kmh S 5.8 mph9.3 kmh 30.10 in1019.3 mb - 0.00 in0.0 mm 0.00 in0.0 mm
02:10 PM 84.6°F29.2°C 64.4°F18.0°C 51% 3.5 mph ESE5.6 kmh ESE 3.5 mph5.6 kmh 30.10 in1019.3 mb - 0.00 in0.0 mm 0.00 in0.0 mm
02:15 PM 85.5°F29.7°C 64.7°F18.2°C 50% 3.5 mph E5.6 kmh E 5.8 mph9.3 kmh 30.10 in1019.3 mb - 0.00 in0.0 mm 0.00 in0.0 mm
02:20 PM 85.2°F29.6°C 64.5°F18.1°C 50% 4.6 mph SE7.4 kmh SE 3.5 mph5.6 kmh 30.10 in1019.3 mb - 0.00 in0.0 mm 0.00 in0.0 mm
02:25 PM 84.8°F29.3°C 64.1°F17.8°C 50% 3.5 mph E5.6 kmh E 4.6 mph7.4 kmh 30.10 in1019.3 mb - 0.00 in0.0 mm 0.00 in0.0 mm
02:30 PM 85.3°F29.6°C 64.5°F18.1°C 50% 3.5 mph ESE5.6 kmh ESE 5.8 mph9.3 kmh 30.10 in1019.3 mb - 0.00 in0.0 mm 0.00 in0.0 mm
02:35 PM 84.6°F29.2°C 64.0°F17.8°C 50% 4.6 mph SSE7.4 kmh SSE 6.9 mph11.1 kmh 30.10 in1019.3 mb - 0.00 in0.0 mm 0.00 in0.0 mm
02:40 PM 84.7°F29.3°C 63.5°F17.5°C 49% 3.5 mph SE5.6 kmh SE 5.8 mph9.3 kmh 30.11 in1019.6 mb - 0.00 in0.0 mm 0.00 in0.0 mm
02:45 PM 84.6°F29.2°C 63.9°F17.7°C 50% 3.5 mph SE5.6 kmh SE 5.8 mph9.3 kmh 30.11 in1019.6 mb - 0.00 in0.0 mm 0.00 in0.0 mm
02:50 PM 84.6°F29.2°C 63.9°F17.7°C 50% 3.5 mph SE5.6 kmh SE 6.9 mph11.1 kmh 30.10 in1019.3 mb - 0.00 in0.0 mm 0.00 in0.0 mm
02:55 PM 84.7°F29.3°C 63.5°F17.5°C 49% 3.5 mph NE5.6 kmh NE 3.5 mph5.6 kmh 30.11 in1019.6 mb - 0.00 in0.0 mm 0.00 in0.0 mm
03:00 PM 85.6°F29.8°C 64.9°F18.3°C 50% 2.3 mph SE3.7 kmh SE 3.5 mph5.6 kmh 30.11 in1019.6 mb - 0.00 in0.0 mm 0.00 in0.0 mm
03:10 PM 84.7°F29.3°C 64.0°F17.8°C 50% 3.5 mph ESE5.6 kmh ESE 5.8 mph9.3 kmh 30.10 in1019.3 mb - 0.00 in0.0 mm 0.00 in0.0 mm
03:15 PM 84.4°F29.1°C 63.7°F17.6°C 50% 3.5 mph SSE5.6 kmh SSE 3.5 mph5.6 kmh 30.10 in1019.3 mb - 0.00 in0.0 mm 0.00 in0.0 mm
03:20 PM 84.4°F29.1°C 63.7°F17.6°C 50% 3.5 mph NNE5.6 kmh NNE 3.5 mph5.6 kmh 30.09 in1019.0 mb - 0.00 in0.0 mm 0.00 in0.0 mm
03:25 PM 82.5°F28.1°C 63.6°F17.6°C 53% 3.5 mph E5.6 kmh E 3.5 mph5.6 kmh 30.09 in1019.0 mb - 0.00 in0.0 mm 0.00 in0.0 mm
03:30 PM 81.9°F27.7°C 64.1°F17.8°C 55% 3.5 mph SSE5.6 kmh SSE 3.5 mph5.6 kmh 30.09 in1019.0 mb - 0.00 in0.0 mm 0.00 in0.0 mm
03:35 PM 81.8°F27.7°C 64.0°F17.8°C 55% 3.5 mph E5.6 kmh E 3.5 mph5.6 kmh 30.09 in1019.0 mb - 0.00 in0.0 mm 0.00 in0.0 mm
03:40 PM 81.3°F27.4°C 63.6°F17.6°C 55% 2.3 mph E3.7 kmh E 5.8 mph9.3 kmh 30.09 in1019.0 mb - 0.00 in0.0 mm 0.00 in0.0 mm
03:45 PM 81.0°F27.2°C 63.3°F17.4°C 55% 3.5 mph ESE5.6 kmh ESE 4.6 mph7.4 kmh 30.09 in1019.0 mb - 0.00 in0.0 mm 0.00 in0.0 mm
03:50 PM 80.9°F27.2°C 63.2°F17.3°C 55% 3.5 mph SE5.6 kmh SE 4.6 mph7.4 kmh 30.08 in1018.6 mb - 0.00 in0.0 mm 0.00 in0.0 mm
03:55 PM 81.0°F27.2°C 63.8°F17.7°C 56% 2.3 mph S3.7 kmh S 2.3 mph3.7 kmh 30.08 in1018.6 mb - 0.00 in0.0 mm 0.00 in0.0 mm
04:00 PM 80.4°F26.9°C 62.8°F17.1°C 55% 3.5 mph ESE5.6 kmh ESE 3.5 mph5.6 kmh 30.08 in1018.6 mb - 0.00 in0.0 mm 0.00 in0.0 mm
04:10 PM 80.8°F27.1°C 63.1°F17.3°C 55% 3.5 mph S5.6 kmh S 4.6 mph7.4 kmh 30.08 in1018.6 mb - 0.00 in0.0 mm 0.00 in0.0 mm
04:15 PM 80.8°F27.1°C 63.1°F17.3°C 55% 3.5 mph W5.6 kmh W 3.5 mph5.6 kmh 30.07 in1018.3 mb - 0.00 in0.0 mm 0.00 in0.0 mm
04:20 PM 80.6°F27.0°C 63.4°F17.4°C 56% 2.3 mph SE3.7 kmh SE 4.6 mph7.4 kmh 30.07 in1018.3 mb - 0.00 in0.0 mm 0.00 in0.0 mm
04:25 PM 80.2°F26.8°C 63.6°F17.6°C 57% 2.3 mph SE3.7 kmh SE 3.5 mph5.6 kmh 30.07 in1018.3 mb - 0.00 in0.0 mm 0.00 in0.0 mm
04:30 PM 80.1°F26.7°C 62.9°F17.2°C 56% 3.5 mph E5.6 kmh E 4.6 mph7.4 kmh 30.07 in1018.3 mb - 0.00 in0.0 mm 0.00 in0.0 mm
04:35 PM 79.9°F26.6°C 63.8°F17.7°C 58% 3.5 mph SE5.6 kmh SE 3.5 mph5.6 kmh 30.08 in1018.6 mb - 0.00 in0.0 mm 0.00 in0.0 mm
04:40 PM 80.1°F26.7°C 64.0°F17.8°C 58% 2.3 mph E3.7 kmh E 3.5 mph5.6 kmh 30.07 in1018.3 mb - 0.00 in0.0 mm 0.00 in0.0 mm
04:45 PM 80.0°F26.7°C 63.9°F17.7°C 58% 3.5 mph NE5.6 kmh NE 6.9 mph11.1 kmh 30.08 in1018.6 mb - 0.00 in0.0 mm 0.00 in0.0 mm
04:50 PM 79.8°F26.6°C 64.2°F17.9°C 59% 3.5 mph NE5.6 kmh NE 3.5 mph5.6 kmh 30.08 in1018.6 mb - 0.00 in0.0 mm 0.00 in0.0 mm
04:55 PM 80.0°F26.7°C 63.9°F17.7°C 58% 3.5 mph SSE5.6 kmh SSE 5.8 mph9.3 kmh 30.07 in1018.3 mb - 0.00 in0.0 mm 0.00 in0.0 mm
05:00 PM 80.1°F26.7°C 64.0°F17.8°C 58% 3.5 mph E5.6 kmh E 3.5 mph5.6 kmh 30.07 in1018.3 mb - 0.00 in0.0 mm 0.00 in0.0 mm
05:10 PM 81.0°F27.2°C 64.8°F18.2°C 58% 2.3 mph E3.7 kmh E 3.5 mph5.6 kmh 30.07 in1018.3 mb - 0.00 in0.0 mm 0.00 in0.0 mm
05:15 PM 80.7°F27.1°C 64.5°F18.1°C 58% 2.3 mph SW3.7 kmh SW 4.6 mph7.4 kmh 30.07 in1018.3 mb - 0.00 in0.0 mm 0.00 in0.0 mm
05:20 PM 79.9°F26.6°C 64.3°F17.9°C 59% 2.3 mph NE3.7 kmh NE 3.5 mph5.6 kmh 30.08 in1018.6 mb - 0.00 in0.0 mm 0.00 in0.0 mm
05:25 PM 79.3°F26.3°C 63.8°F17.7°C 59% 2.3 mph ESE3.7 kmh ESE 3.5 mph5.6 kmh 30.07 in1018.3 mb - 0.00 in0.0 mm 0.00 in0.0 mm
05:30 PM 79.5°F26.4°C 63.9°F17.7°C 59% 3.5 mph ESE5.6 kmh ESE 4.6 mph7.4 kmh 30.07 in1018.3 mb - 0.00 in0.0 mm 0.00 in0.0 mm
05:35 PM 79.5°F26.4°C 63.9°F17.7°C 59% 3.5 mph SSE5.6 kmh SSE 3.5 mph5.6 kmh 30.08 in1018.6 mb - 0.00 in0.0 mm 0.00 in0.0 mm
05:40 PM 79.9°F26.6°C 62.8°F17.1°C 56% 3.5 mph ESE5.6 kmh ESE 1.2 mph1.9 kmh 30.08 in1018.6 mb - 0.00 in0.0 mm 0.00 in0.0 mm
05:45 PM 79.5°F26.4°C 63.9°F17.7°C 59% 2.3 mph WSW3.7 kmh WSW 2.3 mph3.7 kmh 30.08 in1018.6 mb - 0.00 in0.0 mm 0.00 in0.0 mm
05:50 PM 79.8°F26.6°C 63.7°F17.6°C 58% 1.2 mph SE1.9 kmh SE 4.6 mph7.4 kmh 30.08 in1018.6 mb - 0.00 in0.0 mm 0.00 in0.0 mm
05:55 PM 79.5°F26.4°C 63.4°F17.4°C 58% 2.3 mph SE3.7 kmh SE 3.5 mph5.6 kmh 30.08 in1018.6 mb - 0.00 in0.0 mm 0.00 in0.0 mm
06:00 PM 79.2°F26.2°C 61.6°F16.4°C 55% 3.5 mph SE5.6 kmh SE 6.9 mph11.1 kmh 30.08 in1018.6 mb - 0.00 in0.0 mm 0.00 in0.0 mm
06:10 PM 78.4°F25.8°C 60.9°F16.1°C 55% 3.5 mph SE5.6 kmh SE 3.5 mph5.6 kmh 30.07 in1018.3 mb - 0.00 in0.0 mm 0.00 in0.0 mm
06:15 PM 78.3°F25.7°C 61.3°F16.3°C 56% 3.5 mph SE5.6 kmh SE 4.6 mph7.4 kmh 30.07 in1018.3 mb - 0.00 in0.0 mm 0.00 in0.0 mm
06:20 PM 78.1°F25.6°C 61.1°F16.2°C 56% 3.5 mph ESE5.6 kmh ESE 3.5 mph5.6 kmh 30.07 in1018.3 mb - 0.00 in0.0 mm 0.00 in0.0 mm
06:25 PM 78.1°F25.6°C 61.1°F16.2°C 56% 2.3 mph SE3.7 kmh SE 3.5 mph5.6 kmh 30.08 in1018.6 mb - 0.00 in0.0 mm 0.00 in0.0 mm
06:30 PM 78.0°F25.6°C 61.0°F16.1°C 56% 3.5 mph SE5.6 kmh SE 4.6 mph7.4 kmh 30.07 in1018.3 mb - 0.00 in0.0 mm 0.00 in0.0 mm
06:35 PM 77.3°F25.2°C 61.4°F16.3°C 58% 3.5 mph SE5.6 kmh SE 2.3 mph3.7 kmh 30.07 in1018.3 mb - 0.00 in0.0 mm 0.00 in0.0 mm
06:40 PM 76.9°F24.9°C 61.5°F16.4°C 59% 1.2 mph SE1.9 kmh SE 2.3 mph3.7 kmh 30.07 in1018.3 mb - 0.00 in0.0 mm 0.00 in0.0 mm
06:45 PM 76.8°F24.9°C 61.9°F16.6°C 60% 1.2 mph SSE1.9 kmh SSE 2.3 mph3.7 kmh 30.08 in1018.6 mb - 0.00 in0.0 mm 0.00 in0.0 mm
06:50 PM 76.6°F24.8°C 61.7°F16.5°C 60% 1.2 mph SE1.9 kmh SE 2.3 mph3.7 kmh 30.07 in1018.3 mb - 0.00 in0.0 mm 0.00 in0.0 mm
06:55 PM 76.5°F24.7°C 61.5°F16.4°C 60% 2.3 mph E3.7 kmh E 2.3 mph3.7 kmh 30.08 in1018.6 mb - 0.00 in0.0 mm 0.00 in0.0 mm
07:00 PM 76.4°F24.7°C 62.0°F16.7°C 61% 2.3 mph E3.7 kmh E 2.3 mph3.7 kmh 30.07 in1018.3 mb - 0.00 in0.0 mm 0.00 in0.0 mm
07:10 PM 76.4°F24.7°C 61.9°F16.6°C 61% 1.2 mph E1.9 kmh E 1.2 mph1.9 kmh 30.07 in1018.3 mb - 0.00 in0.0 mm 0.00 in0.0 mm
07:15 PM 76.5°F24.7°C 62.0°F16.7°C 61% 1.2 mph ESE1.9 kmh ESE 2.3 mph3.7 kmh 30.07 in1018.3 mb - 0.00 in0.0 mm 0.00 in0.0 mm
07:20 PM 76.3°F24.6°C 61.8°F16.6°C 61% 1.2 mph S1.9 kmh S 1.2 mph1.9 kmh 30.07 in1018.3 mb - 0.00 in0.0 mm 0.00 in0.0 mm
07:25 PM 75.6°F24.2°C 61.2°F16.2°C 61% 1.2 mph E1.9 kmh E -- 30.07 in1018.3 mb - 0.00 in0.0 mm 0.00 in0.0 mm
07:30 PM 75.2°F24.0°C 60.8°F16.0°C 61% 1.2 mph SE1.9 kmh SE 3.5 mph5.6 kmh 30.07 in1018.3 mb - 0.00 in0.0 mm 0.00 in0.0 mm
07:35 PM 74.8°F23.8°C 60.5°F15.8°C 61% 1.2 mph ESE1.9 kmh ESE 3.5 mph5.6 kmh 30.07 in1018.3 mb - 0.00 in0.0 mm 0.00 in0.0 mm
07:40 PM 74.5°F23.6°C 60.1°F15.6°C 61% 1.2 mph SE1.9 kmh SE 2.3 mph3.7 kmh 30.07 in1018.3 mb - 0.00 in0.0 mm 0.00 in0.0 mm
07:45 PM 73.9°F23.3°C 59.6°F15.3°C 61% 2.3 mph SE3.7 kmh SE 2.3 mph3.7 kmh 30.07 in1018.3 mb - 0.00 in0.0 mm 0.00 in0.0 mm
07:50 PM 73.9°F23.3°C 59.6°F15.3°C 61% 2.3 mph SE3.7 kmh SE 1.2 mph1.9 kmh 30.07 in1018.3 mb - 0.00 in0.0 mm 0.00 in0.0 mm
07:55 PM 73.6°F23.1°C 59.3°F15.2°C 61% 2.3 mph SE3.7 kmh SE 2.3 mph3.7 kmh 30.07 in1018.3 mb - 0.00 in0.0 mm 0.00 in0.0 mm
08:00 PM 73.1°F22.8°C 59.8°F15.4°C 63% 2.3 mph E3.7 kmh E 3.5 mph5.6 kmh 30.07 in1018.3 mb - 0.00 in0.0 mm 0.00 in0.0 mm
08:10 PM 72.7°F22.6°C 59.4°F15.2°C 63% 1.2 mph E1.9 kmh E 1.2 mph1.9 kmh 30.07 in1018.3 mb - 0.00 in0.0 mm 0.00 in0.0 mm
08:15 PM 72.5°F22.5°C 60.0°F15.6°C 65% Calm Calm 1.2 mph1.9 kmh 30.07 in1018.3 mb - 0.00 in0.0 mm 0.00 in0.0 mm
08:20 PM 72.1°F22.3°C 59.7°F15.4°C 65% 1.2 mph SE1.9 kmh SE 1.2 mph1.9 kmh 30.07 in1018.3 mb - 0.00 in0.0 mm 0.00 in0.0 mm
08:25 PM 71.8°F22.1°C 59.4°F15.2°C 65% 1.2 mph E1.9 kmh E 1.2 mph1.9 kmh 30.08 in1018.6 mb - 0.00 in0.0 mm 0.00 in0.0 mm
08:30 PM 71.4°F21.9°C 59.5°F15.3°C 66% 1.2 mph E1.9 kmh E 2.3 mph3.7 kmh 30.08 in1018.6 mb - 0.00 in0.0 mm 0.00 in0.0 mm
08:35 PM 71.4°F21.9°C 59.5°F15.3°C 66% Calm Calm 2.3 mph3.7 kmh 30.08 in1018.6 mb - 0.00 in0.0 mm 0.00 in0.0 mm
08:40 PM 71.1°F21.7°C 59.1°F15.1°C 66% 1.2 mph SE1.9 kmh SE 1.2 mph1.9 kmh 30.08 in1018.6 mb - 0.00 in0.0 mm 0.00 in0.0 mm
08:45 PM 71.1°F21.7°C 59.1°F15.1°C 66% 1.2 mph SE1.9 kmh SE 2.3 mph3.7 kmh 30.08 in1018.6 mb - 0.00 in0.0 mm 0.00 in0.0 mm
08:50 PM 70.9°F21.6°C 59.0°F15.0°C 66% 1.2 mph SE1.9 kmh SE 1.2 mph1.9 kmh 30.07 in1018.3 mb - 0.00 in0.0 mm 0.00 in0.0 mm
08:55 PM 70.5°F21.4°C 58.6°F14.8°C 66% 1.2 mph SE1.9 kmh SE 2.3 mph3.7 kmh 30.07 in1018.3 mb - 0.00 in0.0 mm 0.00 in0.0 mm
09:00 PM 70.5°F21.4°C 58.6°F14.8°C 66% 1.2 mph ESE1.9 kmh ESE -- 30.07 in1018.3 mb - 0.00 in0.0 mm 0.00 in0.0 mm
09:10 PM 70.0°F21.1°C 58.9°F14.9°C 68% Calm Calm -- 30.08 in1018.6 mb - 0.00 in0.0 mm 0.00 in0.0 mm
09:15 PM 69.8°F21.0°C 59.2°F15.1°C 69% Calm Calm -- 30.08 in1018.6 mb - 0.00 in0.0 mm 0.00 in0.0 mm
09:20 PM 69.6°F20.9°C 59.0°F15.0°C 69% Calm Calm -- 30.08 in1018.6 mb - 0.00 in0.0 mm 0.00 in0.0 mm
09:25 PM 69.4°F20.8°C 58.8°F14.9°C 69% Calm Calm -- 30.07 in1018.3 mb - 0.00 in0.0 mm 0.00 in0.0 mm
09:30 PM 69.3°F20.7°C 59.1°F15.1°C 70% Calm Calm 1.2 mph1.9 kmh 30.07 in1018.3 mb - 0.00 in0.0 mm 0.00 in0.0 mm
09:35 PM 69.1°F20.6°C 58.9°F14.9°C 70% 1.2 mph SE1.9 kmh SE 1.2 mph1.9 kmh 30.08 in1018.6 mb - 0.00 in0.0 mm 0.00 in0.0 mm
09:40 PM 69.1°F20.6°C 58.9°F14.9°C 70% 1.2 mph SE1.9 kmh SE 2.3 mph3.7 kmh 30.07 in1018.3 mb - 0.00 in0.0 mm 0.00 in0.0 mm
09:45 PM 69.1°F20.6°C 58.5°F14.7°C 69% 1.2 mph ESE1.9 kmh ESE 1.2 mph1.9 kmh 30.07 in1018.3 mb - 0.00 in0.0 mm 0.00 in0.0 mm
09:50 PM 69.1°F20.6°C 58.5°F14.7°C 69% 1.2 mph SE1.9 kmh SE 2.3 mph3.7 kmh 30.07 in1018.3 mb - 0.00 in0.0 mm 0.00 in0.0 mm
09:55 PM 69.1°F20.6°C 58.5°F14.7°C 69% 1.2 mph SE1.9 kmh SE 1.2 mph1.9 kmh 30.08 in1018.6 mb - 0.00 in0.0 mm 0.00 in0.0 mm
10:00 PM 69.1°F20.6°C 58.5°F14.7°C 69% 1.2 mph SE1.9 kmh SE 1.2 mph1.9 kmh 30.07 in1018.3 mb - 0.00 in0.0 mm 0.00 in0.0 mm
10:10 PM 69.1°F20.6°C 58.5°F14.7°C 69% Calm Calm 1.2 mph1.9 kmh 30.07 in1018.3 mb - 0.00 in0.0 mm 0.00 in0.0 mm
10:15 PM 68.9°F20.5°C 58.3°F14.6°C 69% 1.2 mph SE1.9 kmh SE 3.5 mph5.6 kmh 30.08 in1018.6 mb - 0.00 in0.0 mm 0.00 in0.0 mm
10:20 PM 68.9°F20.5°C 58.3°F14.6°C 69% 1.2 mph SE1.9 kmh SE 4.6 mph7.4 kmh 30.07 in1018.3 mb - 0.00 in0.0 mm 0.00 in0.0 mm
10:25 PM 68.9°F20.5°C 58.3°F14.6°C 69% 1.2 mph SE1.9 kmh SE 2.3 mph3.7 kmh 30.07 in1018.3 mb - 0.00 in0.0 mm 0.00 in0.0 mm
10:30 PM 68.9°F20.5°C 58.3°F14.6°C 69% 1.2 mph SE1.9 kmh SE 2.3 mph3.7 kmh 30.07 in1018.3 mb - 0.00 in0.0 mm 0.00 in0.0 mm
10:35 PM 68.9°F20.5°C 58.3°F14.6°C 69% 1.2 mph SE1.9 kmh SE 3.5 mph5.6 kmh 30.07 in1018.3 mb - 0.00 in0.0 mm 0.00 in0.0 mm
10:40 PM 68.9°F20.5°C 57.9°F14.4°C 68% 1.2 mph SSE1.9 kmh SSE 2.3 mph3.7 kmh 30.07 in1018.3 mb - 0.00 in0.0 mm 0.00 in0.0 mm
10:45 PM 68.9°F20.5°C 57.9°F14.4°C 68% 1.2 mph ESE1.9 kmh ESE 2.3 mph3.7 kmh 30.07 in1018.3 mb - 0.00 in0.0 mm 0.00 in0.0 mm
10:50 PM 68.5°F20.3°C 57.6°F14.2°C 68% 1.2 mph E1.9 kmh E 3.5 mph5.6 kmh 30.07 in1018.3 mb - 0.00 in0.0 mm 0.00 in0.0 mm
10:55 PM 68.5°F20.3°C 57.6°F14.2°C 68% 1.2 mph SE1.9 kmh SE 2.3 mph3.7 kmh 30.07 in1018.3 mb - 0.00 in0.0 mm 0.00 in0.0 mm
11:00 PM 68.5°F20.3°C 57.6°F14.2°C 68% 1.2 mph SE1.9 kmh SE 2.3 mph3.7 kmh 30.06 in1017.9 mb - 0.00 in0.0 mm 0.00 in0.0 mm
11:10 PM 68.9°F20.5°C 57.9°F14.4°C 68% 1.2 mph SE1.9 kmh SE 2.3 mph3.7 kmh 30.06 in1017.9 mb - 0.00 in0.0 mm 0.00 in0.0 mm
11:15 PM 68.5°F20.3°C 57.6°F14.2°C 68% 1.2 mph NE1.9 kmh NE 2.3 mph3.7 kmh 30.07 in1018.3 mb - 0.00 in0.0 mm 0.00 in0.0 mm
11:20 PM 68.4°F20.2°C 57.4°F14.1°C 68% 1.2 mph N1.9 kmh N 1.2 mph1.9 kmh 30.06 in1017.9 mb - 0.00 in0.0 mm 0.00 in0.0 mm
11:25 PM 68.4°F20.2°C 56.6°F13.7°C 66% 1.2 mph SSE1.9 kmh SSE 3.5 mph5.6 kmh 30.06 in1017.9 mb - 0.00 in0.0 mm 0.00 in0.0 mm
11:30 PM 68.4°F20.2°C 56.1°F13.4°C 65% 1.2 mph E1.9 kmh E -- 30.06 in1017.9 mb - 0.00 in0.0 mm 0.00 in0.0 mm
11:35 PM 68.4°F20.2°C 56.1°F13.4°C 65% 1.2 mph E1.9 kmh E 2.3 mph3.7 kmh 30.06 in1017.9 mb - 0.00 in0.0 mm 0.00 in0.0 mm
11:40 PM 68.5°F20.3°C 56.3°F13.5°C 65% 1.2 mph E1.9 kmh E 1.2 mph1.9 kmh 30.06 in1017.9 mb - 0.00 in0.0 mm 0.00 in0.0 mm
11:45 PM 68.9°F20.5°C 56.6°F13.7°C 65% 1.2 mph SE1.9 kmh SE 1.2 mph1.9 kmh 30.07 in1018.3 mb - 0.00 in0.0 mm 0.00 in0.0 mm
11:50 PM 68.9°F20.5°C 56.6°F13.7°C 65% 3.5 mph SSW5.6 kmh SSW 4.6 mph7.4 kmh 30.06 in1017.9 mb - 0.00 in0.0 mm 0.00 in0.0 mm
11:55 PM 69.1°F20.6°C 56.8°F13.8°C 65% 1.2 mph 1.9 kmh 2.3 mph3.7 kmh 30.06 in1017.9 mb - 0.00 in0.0 mm 0.00 in0.0 mm